sensor_id;sensor_type;location;lat;lon;timestamp;pressure;altitude;pressure_sealevel;temperature;humidity
24762;BME280;12865;51.934;10.330;2023-06-22T00:02:25;99481.16;;;19.79;100.00
24762;BME280;12865;51.934;10.330;2023-06-22T00:05:11;99488.94;;;19.68;100.00
24762;BME280;12865;51.934;10.330;2023-06-22T00:07:57;99488.22;;;19.59;100.00
24762;BME280;12865;51.934;10.330;2023-06-22T00:10:42;99497.94;;;19.53;100.00
24762;BME280;12865;51.934;10.330;2023-06-22T00:13:28;99489.25;;;19.43;100.00
24762;BME280;12865;51.934;10.330;2023-06-22T00:16:14;99489.91;;;19.45;100.00
24762;BME280;12865;51.934;10.330;2023-06-22T00:19:00;99504.56;;;19.51;100.00
24762;BME280;12865;51.934;10.330;2023-06-22T00:21:46;99500.56;;;19.47;100.00
24762;BME280;12865;51.934;10.330;2023-06-22T00:24:32;99499.44;;;19.41;100.00
24762;BME280;12865;51.934;10.330;2023-06-22T00:27:18;99513.31;;;19.38;100.00
24762;BME280;12865;51.934;10.330;2023-06-22T00:30:04;99512.50;;;19.52;100.00
24762;BME280;12865;51.934;10.330;2023-06-22T00:32:49;99509.13;;;19.50;100.00
24762;BME280;12865;51.934;10.330;2023-06-22T00:35:35;99515.47;;;19.57;100.00
24762;BME280;12865;51.934;10.330;2023-06-22T00:38:21;99506.69;;;19.55;100.00
24762;BME280;12865;51.934;10.330;2023-06-22T00:41:06;99509.78;;;19.52;100.00
24762;BME280;12865;51.934;10.330;2023-06-22T00:43:52;99517.25;;;19.50;100.00
24762;BME280;12865;51.934;10.330;2023-06-22T00:46:38;99512.56;;;19.44;100.00
24762;BME280;12865;51.934;10.330;2023-06-22T00:49:23;99504.84;;;19.41;100.00
24762;BME280;12865;51.934;10.330;2023-06-22T00:52:10;99502.31;;;19.40;100.00
24762;BME280;12865;51.934;10.330;2023-06-22T00:55:01;99494.47;;;19.45;100.00
24762;BME280;12865;51.934;10.330;2023-06-22T00:57:48;99480.69;;;19.40;100.00
24762;BME280;12865;51.934;10.330;2023-06-22T01:00:34;99469.88;;;19.40;100.00
24762;BME280;12865;51.934;10.330;2023-06-22T01:03:19;99469.13;;;19.46;100.00
24762;BME280;12865;51.934;10.330;2023-06-22T01:06:10;99461.78;;;19.40;100.00
24762;BME280;12865;51.934;10.330;2023-06-22T01:12:00;99466.53;;;19.38;100.00
24762;BME280;12865;51.934;10.330;2023-06-22T01:14:51;99463.09;;;19.29;100.00
24762;BME280;12865;51.934;10.330;2023-06-22T01:17:40;99456.00;;;19.28;100.00
24762;BME280;12865;51.934;10.330;2023-06-22T01:20:29;99440.53;;;19.22;100.00
24762;BME280;12865;51.934;10.330;2023-06-22T01:26:28;99442.31;;;19.15;100.00
24762;BME280;12865;51.934;10.330;2023-06-22T01:29:21;99440.00;;;19.12;100.00
24762;BME280;12865;51.934;10.330;2023-06-22T01:32:08;99438.78;;;19.14;100.00
24762;BME280;12865;51.934;10.330;2023-06-22T01:34:55;99439.72;;;19.07;100.00
24762;BME280;12865;51.934;10.330;2023-06-22T01:37:41;99441.50;;;19.00;100.00
24762;BME280;12865;51.934;10.330;2023-06-22T01:40:28;99435.47;;;18.98;100.00
24762;BME280;12865;51.934;10.330;2023-06-22T01:43:15;99431.34;;;19.02;100.00
24762;BME280;12865;51.934;10.330;2023-06-22T01:46:01;99432.59;;;18.99;100.00
24762;BME280;12865;51.934;10.330;2023-06-22T01:48:47;99436.31;;;18.98;100.00
24762;BME280;12865;51.934;10.330;2023-06-22T01:51:33;99435.16;;;18.93;100.00
24762;BME280;12865;51.934;10.330;2023-06-22T01:54:19;99426.03;;;18.94;100.00
24762;BME280;12865;51.934;10.330;2023-06-22T01:57:05;99428.19;;;18.98;100.00
24762;BME280;12865;51.934;10.330;2023-06-22T02:00:12;99429.88;;;18.99;100.00
24762;BME280;12865;51.934;10.330;2023-06-22T02:03:04;99423.63;;;18.99;100.00
24762;BME280;12865;51.934;10.330;2023-06-22T02:05:58;99426.88;;;18.94;100.00
24762;BME280;12865;51.934;10.330;2023-06-22T02:08:49;99439.19;;;18.97;100.00
24762;BME280;12865;51.934;10.330;2023-06-22T02:11:37;99430.44;;;18.95;100.00
24762;BME280;12865;51.934;10.330;2023-06-22T02:14:27;99430.59;;;18.93;100.00
24762;BME280;12865;51.934;10.330;2023-06-22T02:17:13;99434.38;;;18.92;100.00
24762;BME280;12865;51.934;10.330;2023-06-22T02:20:02;99440.78;;;18.91;100.00
24762;BME280;12865;51.934;10.330;2023-06-22T02:22:48;99438.00;;;18.99;100.00
24762;BME280;12865;51.934;10.330;2023-06-22T02:25:34;99439.38;;;18.95;100.00
24762;BME280;12865;51.934;10.330;2023-06-22T02:28:20;99446.47;;;18.96;100.00
24762;BME280;12865;51.934;10.330;2023-06-22T02:31:06;99442.91;;;18.96;100.00
24762;BME280;12865;51.934;10.330;2023-06-22T02:33:52;99446.72;;;19.01;100.00
24762;BME280;12865;51.934;10.330;2023-06-22T02:36:37;99446.09;;;18.99;100.00
24762;BME280;12865;51.934;10.330;2023-06-22T02:39:24;99446.47;;;18.96;100.00
24762;BME280;12865;51.934;10.330;2023-06-22T02:42:10;99454.31;;;18.91;100.00
24762;BME280;12865;51.934;10.330;2023-06-22T02:44:56;99452.44;;;18.92;100.00
24762;BME280;12865;51.934;10.330;2023-06-22T02:47:41;99467.59;;;18.93;100.00
24762;BME280;12865;51.934;10.330;2023-06-22T02:50:27;99467.59;;;18.93;100.00
24762;BME280;12865;51.934;10.330;2023-06-22T02:53:13;99476.00;;;18.98;100.00
24762;BME280;12865;51.934;10.330;2023-06-22T02:55:58;99476.09;;;19.04;100.00
24762;BME280;12865;51.934;10.330;2023-06-22T02:58:46;99489.88;;;19.09;100.00
24762;BME280;12865;51.934;10.330;2023-06-22T03:01:32;99485.31;;;19.10;100.00
24762;BME280;12865;51.934;10.330;2023-06-22T03:04:23;99497.78;;;19.11;100.00
24762;BME280;12865;51.934;10.330;2023-06-22T03:07:08;99494.00;;;19.05;100.00
24762;BME280;12865;51.934;10.330;2023-06-22T03:09:54;99488.19;;;19.08;100.00
24762;BME280;12865;51.934;10.330;2023-06-22T03:12:41;99493.41;;;19.10;100.00
24762;BME280;12865;51.934;10.330;2023-06-22T03:15:26;99503.03;;;19.12;100.00
24762;BME280;12865;51.934;10.330;2023-06-22T03:18:14;99503.47;;;19.16;100.00
24762;BME280;12865;51.934;10.330;2023-06-22T03:21:01;99499.09;;;19.15;100.00
24762;BME280;12865;51.934;10.330;2023-06-22T03:23:47;99496.69;;;19.20;100.00
24762;BME280;12865;51.934;10.330;2023-06-22T03:26:34;99497.50;;;19.20;100.00
24762;BME280;12865;51.934;10.330;2023-06-22T03:29:20;99499.66;;;19.25;100.00
24762;BME280;12865;51.934;10.330;2023-06-22T03:32:06;99500.84;;;19.22;100.00
24762;BME280;12865;51.934;10.330;2023-06-22T03:34:52;99496.09;;;19.25;100.00
24762;BME280;12865;51.934;10.330;2023-06-22T03:37:37;99493.22;;;19.26;100.00
24762;BME280;12865;51.934;10.330;2023-06-22T03:40:23;99493.84;;;19.28;100.00
24762;BME280;12865;51.934;10.330;2023-06-22T03:43:09;99492.19;;;19.27;100.00
24762;BME280;12865;51.934;10.330;2023-06-22T03:45:55;99490.13;;;19.29;100.00
24762;BME280;12865;51.934;10.330;2023-06-22T03:48:40;99486.41;;;19.30;100.00
24762;BME280;12865;51.934;10.330;2023-06-22T03:51:26;99484.34;;;19.32;100.00
24762;BME280;12865;51.934;10.330;2023-06-22T03:54:12;99483.13;;;19.35;100.00
24762;BME280;12865;51.934;10.330;2023-06-22T03:56:58;99473.13;;;19.35;100.00
24762;BME280;12865;51.934;10.330;2023-06-22T03:59:43;99473.59;;;19.39;100.00
24762;BME280;12865;51.934;10.330;2023-06-22T04:02:29;99471.56;;;19.41;100.00
24762;BME280;12865;51.934;10.330;2023-06-22T04:05:15;99470.31;;;19.43;100.00
24762;BME280;12865;51.934;10.330;2023-06-22T04:08:03;99482.81;;;19.44;100.00
24762;BME280;12865;51.934;10.330;2023-06-22T04:10:48;99488.03;;;19.46;100.00
24762;BME280;12865;51.934;10.330;2023-06-22T04:13:34;99490.19;;;19.50;100.00
24762;BME280;12865;51.934;10.330;2023-06-22T04:16:20;99493.38;;;19.54;100.00
24762;BME280;12865;51.934;10.330;2023-06-22T04:19:05;99485.06;;;19.55;100.00
24762;BME280;12865;51.934;10.330;2023-06-22T04:21:51;99480.03;;;19.52;100.00
24762;BME280;12865;51.934;10.330;2023-06-22T04:24:37;99476.75;;;19.57;100.00
24762;BME280;12865;51.934;10.330;2023-06-22T04:27:22;99472.19;;;19.57;100.00
24762;BME280;12865;51.934;10.330;2023-06-22T04:30:09;99471.81;;;19.60;100.00
24762;BME280;12865;51.934;10.330;2023-06-22T04:32:54;99474.13;;;19.64;100.00
24762;BME280;12865;51.934;10.330;2023-06-22T04:35:46;99477.09;;;19.69;100.00
24762;BME280;12865;51.934;10.330;2023-06-22T04:38:32;99465.03;;;19.71;100.00
24762;BME280;12865;51.934;10.330;2023-06-22T04:41:20;99472.31;;;19.71;100.00
24762;BME280;12865;51.934;10.330;2023-06-22T04:44:13;99475.69;;;19.73;100.00
24762;BME280;12865;51.934;10.330;2023-06-22T04:47:01;99470.63;;;19.70;100.00
24762;BME280;12865;51.934;10.330;2023-06-22T04:49:48;99476.75;;;19.57;100.00
24762;BME280;12865;51.934;10.330;2023-06-22T04:52:34;99471.44;;;19.49;100.00
24762;BME280;12865;51.934;10.330;2023-06-22T04:55:20;99466.34;;;19.54;100.00
24762;BME280;12865;51.934;10.330;2023-06-22T04:58:06;99460.84;;;19.47;100.00
24762;BME280;12865;51.934;10.330;2023-06-22T05:00:51;99466.16;;;19.41;100.00
24762;BME280;12865;51.934;10.330;2023-06-22T05:03:37;99464.91;;;19.43;100.00
24762;BME280;12865;51.934;10.330;2023-06-22T05:06:23;99459.44;;;19.51;100.00
24762;BME280;12865;51.934;10.330;2023-06-22T05:09:12;99461.53;;;19.56;100.00
24762;BME280;12865;51.934;10.330;2023-06-22T05:11:57;99455.59;;;19.60;100.00
24762;BME280;12865;51.934;10.330;2023-06-22T05:14:45;99459.13;;;19.61;100.00
24762;BME280;12865;51.934;10.330;2023-06-22T05:17:30;99446.44;;;19.62;100.00
24762;BME280;12865;51.934;10.330;2023-06-22T05:20:16;99449.78;;;19.64;100.00
24762;BME280;12865;51.934;10.330;2023-06-22T05:23:03;99451.44;;;19.65;100.00
24762;BME280;12865;51.934;10.330;2023-06-22T05:25:49;99448.19;;;19.69;100.00
24762;BME280;12865;51.934;10.330;2023-06-22T05:28:34;99451.69;;;19.70;100.00
24762;BME280;12865;51.934;10.330;2023-06-22T05:31:20;99456.09;;;19.71;100.00
24762;BME280;12865;51.934;10.330;2023-06-22T05:34:06;99458.59;;;19.72;100.00
24762;BME280;12865;51.934;10.330;2023-06-22T05:36:51;99451.34;;;19.73;100.00
24762;BME280;12865;51.934;10.330;2023-06-22T05:39:37;99451.16;;;19.74;100.00
24762;BME280;12865;51.934;10.330;2023-06-22T05:42:23;99453.25;;;19.79;100.00
24762;BME280;12865;51.934;10.330;2023-06-22T05:45:11;99457.66;;;19.80;100.00
24762;BME280;12865;51.934;10.330;2023-06-22T05:47:57;99452.06;;;19.81;100.00
24762;BME280;12865;51.934;10.330;2023-06-22T05:50:42;99455.41;;;19.83;100.00
24762;BME280;12865;51.934;10.330;2023-06-22T05:53:28;99452.31;;;19.86;100.00
24762;BME280;12865;51.934;10.330;2023-06-22T05:56:14;99455.19;;;19.85;100.00
24762;BME280;12865;51.934;10.330;2023-06-22T05:58:59;99452.75;;;19.90;100.00
24762;BME280;12865;51.934;10.330;2023-06-22T06:01:45;99464.22;;;19.92;100.00
24762;BME280;12865;51.934;10.330;2023-06-22T06:04:35;99461.38;;;20.00;100.00
24762;BME280;12865;51.934;10.330;2023-06-22T06:07:21;99454.28;;;19.99;100.00
24762;BME280;12865;51.934;10.330;2023-06-22T06:10:07;99451.84;;;20.04;100.00
24762;BME280;12865;51.934;10.330;2023-06-22T06:12:53;99454.41;;;20.12;100.00
24762;BME280;12865;51.934;10.330;2023-06-22T06:15:39;99451.97;;;20.17;100.00
24762;BME280;12865;51.934;10.330;2023-06-22T06:18:24;99459.94;;;20.25;100.00
24762;BME280;12865;51.934;10.330;2023-06-22T06:21:10;99456.25;;;20.33;100.00
24762;BME280;12865;51.934;10.330;2023-06-22T06:23:56;99450.91;;;20.39;100.00
24762;BME280;12865;51.934;10.330;2023-06-22T06:26:41;99451.78;;;20.47;100.00
24762;BME280;12865;51.934;10.330;2023-06-22T06:29:27;99457.28;;;20.53;100.00
24762;BME280;12865;51.934;10.330;2023-06-22T06:32:13;99453.78;;;20.59;100.00
24762;BME280;12865;51.934;10.330;2023-06-22T06:34:58;99444.19;;;20.63;100.00
24762;BME280;12865;51.934;10.330;2023-06-22T06:37:45;99450.31;;;20.72;100.00
24762;BME280;12865;51.934;10.330;2023-06-22T06:40:31;99447.84;;;20.84;100.00
24762;BME280;12865;51.934;10.330;2023-06-22T06:43:17;99447.88;;;20.90;100.00
24762;BME280;12865;51.934;10.330;2023-06-22T06:46:03;99445.19;;;20.90;100.00
24762;BME280;12865;51.934;10.330;2023-06-22T06:48:48;99440.44;;;20.99;100.00
24762;BME280;12865;51.934;10.330;2023-06-22T06:51:34;99443.41;;;21.10;100.00
24762;BME280;12865;51.934;10.330;2023-06-22T06:54:20;99442.66;;;21.17;100.00
24762;BME280;12865;51.934;10.330;2023-06-22T06:57:06;99440.16;;;21.22;100.00
24762;BME280;12865;51.934;10.330;2023-06-22T06:59:51;99442.06;;;21.28;100.00
24762;BME280;12865;51.934;10.330;2023-06-22T07:02:38;99441.84;;;21.29;100.00
24762;BME280;12865;51.934;10.330;2023-06-22T07:05:25;99448.13;;;21.36;100.00
24762;BME280;12865;51.934;10.330;2023-06-22T07:08:11;99447.31;;;21.36;100.00
24762;BME280;12865;51.934;10.330;2023-06-22T07:10:56;99435.84;;;21.40;100.00
24762;BME280;12865;51.934;10.330;2023-06-22T07:13:42;99440.03;;;21.49;100.00
24762;BME280;12865;51.934;10.330;2023-06-22T07:16:28;99435.66;;;21.55;100.00
24762;BME280;12865;51.934;10.330;2023-06-22T07:19:14;99439.88;;;21.64;100.00
24762;BME280;12865;51.934;10.330;2023-06-22T07:21:59;99436.53;;;21.75;100.00
24762;BME280;12865;51.934;10.330;2023-06-22T07:24:45;99434.28;;;21.85;100.00
24762;BME280;12865;51.934;10.330;2023-06-22T07:27:31;99439.53;;;22.00;100.00
24762;BME280;12865;51.934;10.330;2023-06-22T07:30:21;99437.66;;;22.14;100.00
24762;BME280;12865;51.934;10.330;2023-06-22T07:33:06;99434.94;;;22.27;100.00
24762;BME280;12865;51.934;10.330;2023-06-22T07:35:53;99431.16;;;22.41;100.00
24762;BME280;12865;51.934;10.330;2023-06-22T07:38:39;99430.53;;;22.46;100.00
24762;BME280;12865;51.934;10.330;2023-06-22T07:41:25;99430.69;;;22.57;100.00
24762;BME280;12865;51.934;10.330;2023-06-22T07:44:10;99428.84;;;22.78;100.00
24762;BME280;12865;51.934;10.330;2023-06-22T07:46:56;99431.88;;;23.01;99.13
24762;BME280;12865;51.934;10.330;2023-06-22T07:49:42;99427.19;;;23.21;97.24
24762;BME280;12865;51.934;10.330;2023-06-22T07:52:28;99425.94;;;23.24;100.00
24762;BME280;12865;51.934;10.330;2023-06-22T07:55:14;99429.28;;;23.26;98.74
24762;BME280;12865;51.934;10.330;2023-06-22T07:58:00;99431.19;;;23.19;100.00
24762;BME280;12865;51.934;10.330;2023-06-22T08:00:46;99425.53;;;23.14;100.00
24762;BME280;12865;51.934;10.330;2023-06-22T08:03:32;99430.16;;;23.13;100.00
24762;BME280;12865;51.934;10.330;2023-06-22T08:06:18;99430.22;;;22.93;100.00
24762;BME280;12865;51.934;10.330;2023-06-22T08:09:03;99425.38;;;23.08;100.00
24762;BME280;12865;51.934;10.330;2023-06-22T08:11:49;99424.69;;;23.26;100.00
24762;BME280;12865;51.934;10.330;2023-06-22T08:14:37;99420.66;;;23.29;100.00
24762;BME280;12865;51.934;10.330;2023-06-22T08:17:24;99422.81;;;23.14;100.00
24762;BME280;12865;51.934;10.330;2023-06-22T08:20:10;99419.56;;;23.43;100.00
24762;BME280;12865;51.934;10.330;2023-06-22T08:22:59;99420.44;;;23.37;100.00
24762;BME280;12865;51.934;10.330;2023-06-22T08:25:50;99420.38;;;23.50;100.00
24762;BME280;12865;51.934;10.330;2023-06-22T08:28:36;99420.47;;;23.30;100.00
24762;BME280;12865;51.934;10.330;2023-06-22T08:31:22;99422.31;;;23.36;100.00
24762;BME280;12865;51.934;10.330;2023-06-22T08:34:07;99420.47;;;23.30;100.00
24762;BME280;12865;51.934;10.330;2023-06-22T08:36:53;99420.53;;;23.62;100.00
24762;BME280;12865;51.934;10.330;2023-06-22T08:39:39;99420.09;;;23.96;100.00
24762;BME280;12865;51.934;10.330;2023-06-22T08:42:25;99437.06;;;24.48;97.71
24762;BME280;12865;51.934;10.330;2023-06-22T08:45:11;99435.19;;;24.23;97.35
24762;BME280;12865;51.934;10.330;2023-06-22T08:47:57;99440.66;;;24.23;97.39
24762;BME280;12865;51.934;10.330;2023-06-22T08:50:43;99436.47;;;24.14;98.08
24762;BME280;12865;51.934;10.330;2023-06-22T08:53:28;99439.63;;;24.18;98.54
24762;BME280;12865;51.934;10.330;2023-06-22T08:56:14;99433.75;;;24.14;98.63
24762;BME280;12865;51.934;10.330;2023-06-22T08:59:00;99425.16;;;24.42;96.97
24762;BME280;12865;51.934;10.330;2023-06-22T09:01:46;99422.78;;;24.27;98.50
24762;BME280;12865;51.934;10.330;2023-06-22T09:04:34;99411.44;;;24.31;97.12
24762;BME280;12865;51.934;10.330;2023-06-22T09:07:20;99407.34;;;24.40;98.19
24762;BME280;12865;51.934;10.330;2023-06-22T09:10:07;99394.75;;;24.45;98.04
24762;BME280;12865;51.934;10.330;2023-06-22T09:12:53;99393.06;;;24.62;96.74
24762;BME280;12865;51.934;10.330;2023-06-22T09:15:39;99391.84;;;24.40;96.30
24762;BME280;12865;51.934;10.330;2023-06-22T09:18:25;99385.72;;;24.81;95.01
24762;BME280;12865;51.934;10.330;2023-06-22T09:21:10;99393.75;;;24.58;93.43
24762;BME280;12865;51.934;10.330;2023-06-22T09:23:56;99396.97;;;24.91;94.52
24762;BME280;12865;51.934;10.330;2023-06-22T09:26:42;99389.41;;;25.41;91.06
24762;BME280;12865;51.934;10.330;2023-06-22T09:29:27;99386.75;;;25.35;91.35
24762;BME280;12865;51.934;10.330;2023-06-22T09:32:13;99389.78;;;25.87;89.69
24762;BME280;12865;51.934;10.330;2023-06-22T09:35:03;99381.84;;;25.85;88.39
24762;BME280;12865;51.934;10.330;2023-06-22T09:37:51;99377.72;;;26.06;88.76
24762;BME280;12865;51.934;10.330;2023-06-22T09:40:36;99366.47;;;26.49;83.83
24762;BME280;12865;51.934;10.330;2023-06-22T09:43:25;99375.41;;;26.84;82.60
24762;BME280;12865;51.934;10.330;2023-06-22T09:46:11;99376.41;;;26.20;85.60
24762;BME280;12865;51.934;10.330;2023-06-22T09:48:56;99373.19;;;26.23;86.78
24762;BME280;12865;51.934;10.330;2023-06-22T09:51:42;99361.59;;;26.39;84.11
24762;BME280;12865;51.934;10.330;2023-06-22T09:54:28;99362.00;;;25.90;87.65
24762;BME280;12865;51.934;10.330;2023-06-22T09:57:13;99362.13;;;25.83;88.40
24762;BME280;12865;51.934;10.330;2023-06-22T09:59:59;99358.97;;;26.33;87.39
24762;BME280;12865;51.934;10.330;2023-06-22T10:02:45;99348.88;;;26.85;84.61
24762;BME280;12865;51.934;10.330;2023-06-22T10:05:30;99356.88;;;26.98;82.09
24762;BME280;12865;51.934;10.330;2023-06-22T10:08:17;99361.84;;;27.01;83.72
24762;BME280;12865;51.934;10.330;2023-06-22T10:11:06;99367.41;;;26.54;84.26
24762;BME280;12865;51.934;10.330;2023-06-22T10:13:51;99364.03;;;26.64;86.24
24762;BME280;12865;51.934;10.330;2023-06-22T10:16:37;99368.47;;;26.53;86.18
24762;BME280;12865;51.934;10.330;2023-06-22T10:19:23;99366.19;;;26.50;83.94
24762;BME280;12865;51.934;10.330;2023-06-22T10:22:08;99359.41;;;26.65;83.58
24762;BME280;12865;51.934;10.330;2023-06-22T10:24:54;99367.03;;;26.63;84.26
24762;BME280;12865;51.934;10.330;2023-06-22T10:27:40;99365.94;;;26.75;83.88
24762;BME280;12865;51.934;10.330;2023-06-22T10:30:25;99357.38;;;26.72;83.98
24762;BME280;12865;51.934;10.330;2023-06-22T10:33:12;99358.50;;;26.47;85.00
24762;BME280;12865;51.934;10.330;2023-06-22T10:35:57;99356.97;;;26.28;84.62
24762;BME280;12865;51.934;10.330;2023-06-22T10:38:43;99357.28;;;26.43;86.73
24762;BME280;12865;51.934;10.330;2023-06-22T10:41:29;99354.63;;;26.95;82.17
24762;BME280;12865;51.934;10.330;2023-06-22T10:44:16;99347.44;;;27.34;79.69
24762;BME280;12865;51.934;10.330;2023-06-22T10:47:03;99338.97;;;27.35;78.81
24762;BME280;12865;51.934;10.330;2023-06-22T10:49:48;99331.03;;;27.51;78.08
24762;BME280;12865;51.934;10.330;2023-06-22T10:52:34;99338.53;;;27.27;78.63
24762;BME280;12865;51.934;10.330;2023-06-22T10:55:20;99342.63;;;27.41;82.13
24762;BME280;12865;51.934;10.330;2023-06-22T10:58:05;99334.94;;;27.10;80.42
24762;BME280;12865;51.934;10.330;2023-06-22T11:00:51;99330.59;;;27.25;82.52
24762;BME280;12865;51.934;10.330;2023-06-22T11:03:37;99318.28;;;27.56;80.88
24762;BME280;12865;51.934;10.330;2023-06-22T11:06:23;99320.41;;;28.16;82.20
24762;BME280;12865;51.934;10.330;2023-06-22T11:09:08;99312.97;;;28.33;74.70
24762;BME280;12865;51.934;10.330;2023-06-22T11:11:38;99310.69;;;28.47;70.79
24762;BME280;12865;51.934;10.330;2023-06-22T11:14:25;99305.00;;;27.98;72.78
24762;BME280;12865;51.934;10.330;2023-06-22T11:17:10;99307.91;;;28.25;70.85
24762;BME280;12865;51.934;10.330;2023-06-22T11:19:56;99306.59;;;28.49;72.21
24762;BME280;12865;51.934;10.330;2023-06-22T11:22:42;99300.72;;;28.79;69.96
24762;BME280;12865;51.934;10.330;2023-06-22T11:25:27;99296.50;;;28.94;68.73
24762;BME280;12865;51.934;10.330;2023-06-22T11:28:14;99283.13;;;29.29;68.19
24762;BME280;12865;51.934;10.330;2023-06-22T11:30:59;99293.63;;;29.10;68.09
24762;BME280;12865;51.934;10.330;2023-06-22T11:33:45;99292.22;;;29.56;66.90
24762;BME280;12865;51.934;10.330;2023-06-22T11:36:32;99285.88;;;29.29;66.52
24762;BME280;12865;51.934;10.330;2023-06-22T11:39:20;99285.19;;;29.71;62.54
24762;BME280;12865;51.934;10.330;2023-06-22T11:42:06;99271.28;;;29.02;66.44
24762;BME280;12865;51.934;10.330;2023-06-22T11:44:52;99259.16;;;29.51;66.53
24762;BME280;12865;51.934;10.330;2023-06-22T11:47:38;99254.56;;;29.94;62.84
24762;BME280;12865;51.934;10.330;2023-06-22T11:50:24;99241.84;;;29.83;63.41
24762;BME280;12865;51.934;10.330;2023-06-22T11:53:10;99249.09;;;29.94;63.80
24762;BME280;12865;51.934;10.330;2023-06-22T11:55:56;99240.16;;;30.19;64.24
24762;BME280;12865;51.934;10.330;2023-06-22T11:58:42;99232.38;;;30.58;61.62
24762;BME280;12865;51.934;10.330;2023-06-22T12:01:27;99222.59;;;30.30;61.88
24762;BME280;12865;51.934;10.330;2023-06-22T12:04:14;99225.28;;;30.77;58.34
24762;BME280;12865;51.934;10.330;2023-06-22T12:06:59;99218.25;;;30.34;59.32
24762;BME280;12865;51.934;10.330;2023-06-22T12:09:45;99205.59;;;30.43;60.01
24762;BME280;12865;51.934;10.330;2023-06-22T12:12:31;99210.16;;;30.84;58.24
24762;BME280;12865;51.934;10.330;2023-06-22T12:15:17;99198.31;;;30.84;59.76
24762;BME280;12865;51.934;10.330;2023-06-22T12:18:02;99200.44;;;30.57;58.01
24762;BME280;12865;51.934;10.330;2023-06-22T12:20:48;99198.00;;;30.70;58.41
24762;BME280;12865;51.934;10.330;2023-06-22T12:23:34;99191.38;;;30.56;58.17
24762;BME280;12865;51.934;10.330;2023-06-22T12:26:20;99191.78;;;31.05;55.60
24762;BME280;12865;51.934;10.330;2023-06-22T12:29:05;99182.41;;;31.06;55.59
24762;BME280;12865;51.934;10.330;2023-06-22T12:31:51;99185.97;;;30.97;56.58
24762;BME280;12865;51.934;10.330;2023-06-22T12:34:36;99168.59;;;30.91;56.48
24762;BME280;12865;51.934;10.330;2023-06-22T12:37:23;99165.31;;;30.94;56.65
24762;BME280;12865;51.934;10.330;2023-06-22T12:40:09;99151.31;;;31.16;54.35
24762;BME280;12865;51.934;10.330;2023-06-22T12:42:55;99155.16;;;31.10;54.59
24762;BME280;12865;51.934;10.330;2023-06-22T12:45:41;99169.16;;;30.98;55.87
24762;BME280;12865;51.934;10.330;2023-06-22T12:48:27;99161.75;;;31.09;55.50
24762;BME280;12865;51.934;10.330;2023-06-22T12:51:20;99152.94;;;31.07;54.65
24762;BME280;12865;51.934;10.330;2023-06-22T12:54:07;99158.19;;;31.13;53.94
24762;BME280;12865;51.934;10.330;2023-06-22T12:56:53;99152.13;;;31.21;55.64
24762;BME280;12865;51.934;10.330;2023-06-22T12:59:38;99150.19;;;31.37;54.15
24762;BME280;12865;51.934;10.330;2023-06-22T13:02:24;99138.31;;;31.52;54.02
24762;BME280;12865;51.934;10.330;2023-06-22T13:05:10;99137.75;;;31.70;54.82
24762;BME280;12865;51.934;10.330;2023-06-22T13:07:55;99132.25;;;31.65;53.41
24762;BME280;12865;51.934;10.330;2023-06-22T13:10:41;99127.31;;;31.67;52.79
24762;BME280;12865;51.934;10.330;2023-06-22T13:13:27;99124.00;;;31.65;54.15
24762;BME280;12865;51.934;10.330;2023-06-22T13:16:13;99117.38;;;31.51;52.83
24762;BME280;12865;51.934;10.330;2023-06-22T13:18:58;99120.97;;;31.36;55.54
24762;BME280;12865;51.934;10.330;2023-06-22T13:21:44;99106.38;;;31.36;54.84
24762;BME280;12865;51.934;10.330;2023-06-22T13:24:30;99115.72;;;30.94;56.69
24762;BME280;12865;51.934;10.330;2023-06-22T13:27:15;99115.75;;;30.89;54.29
24762;BME280;12865;51.934;10.330;2023-06-22T13:30:01;99109.94;;;30.86;56.58
24762;BME280;12865;51.934;10.330;2023-06-22T13:32:48;99111.03;;;30.84;55.73
24762;BME280;12865;51.934;10.330;2023-06-22T13:35:34;99101.81;;;30.28;57.48
24762;BME280;12865;51.934;10.330;2023-06-22T13:38:20;99098.44;;;30.01;58.24
24762;BME280;12865;51.934;10.330;2023-06-22T13:41:06;99103.16;;;30.11;57.94
24762;BME280;12865;51.934;10.330;2023-06-22T13:43:51;99099.34;;;30.22;58.53
24762;BME280;12865;51.934;10.330;2023-06-22T13:46:37;99087.47;;;30.06;58.04
24762;BME280;12865;51.934;10.330;2023-06-22T13:49:23;99084.75;;;30.16;58.42
24762;BME280;12865;51.934;10.330;2023-06-22T13:52:09;99076.75;;;30.04;58.19
24762;BME280;12865;51.934;10.330;2023-06-22T13:54:55;99063.78;;;30.00;58.79
24762;BME280;12865;51.934;10.330;2023-06-22T13:57:42;99057.25;;;30.21;57.05
24762;BME280;12865;51.934;10.330;2023-06-22T14:00:27;99054.50;;;30.16;57.34
24762;BME280;12865;51.934;10.330;2023-06-22T14:03:13;99058.84;;;30.02;57.44
24762;BME280;12865;51.934;10.330;2023-06-22T14:06:01;99050.50;;;29.87;57.56
24762;BME280;12865;51.934;10.330;2023-06-22T14:08:47;99055.09;;;29.66;58.98
24762;BME280;12865;51.934;10.330;2023-06-22T14:11:32;99045.09;;;29.97;59.60
24762;BME280;12865;51.934;10.330;2023-06-22T14:14:18;99040.88;;;29.79;59.50
24762;BME280;12865;51.934;10.330;2023-06-22T14:17:04;99037.84;;;29.86;57.75
24762;BME280;12865;51.934;10.330;2023-06-22T14:19:51;99023.66;;;30.09;58.63
24762;BME280;12865;51.934;10.330;2023-06-22T14:22:40;99014.84;;;30.07;57.86
24762;BME280;12865;51.934;10.330;2023-06-22T14:25:26;99001.09;;;29.97;58.58
24762;BME280;12865;51.934;10.330;2023-06-22T14:28:12;98985.44;;;29.92;57.91
24762;BME280;12865;51.934;10.330;2023-06-22T14:30:57;98959.25;;;29.90;57.62